Delphos, Iowa
Current Conditions -  °F | °C
As of 12:53 PM on Thursday 18 Dec 2014 (Local Time) from KLWD Reporting Station
Overcast Overcast  
Wind Chill: -2°   Ceiling: 800
Heat Index: -2°   Visibility: 10mi
Dew Point: -4°   Wind: 0mph
Humidity: 85%   Direction: NA
Pressure: 30.22"   Gusts: NA
Location:  40.6052°N, 94.3576°W
Report Text: KLWD 181853Z AUTO 00000KT 10SM OVC008 M02/M04 A3022 RMK AO2 SLP249 T10221044
Loading
Personal Weather Stations






























Interactive Weather Map New forecast layout! Learn more

10-Day Weather Forecast

Advertisements
Track Severe Weather on mobile